Time;durP1;ratioP1;P1;durP2;ratioP2;P2;SDS_P1;SDS_P2;PMS_P1;PMS_P2;Temp;Humidity;BMP_temperature;BMP_pressure;BME280_temperature;BME280_humidity;BME280_pressure;Samples;Min_cycle;Max_cycle;Signal;HPM_P1;HPM_P2
2022/01/04 00:04:16;;;;;;;20.05;14.85;;;;;;;;;;20913842;28;20068;-60
2022/01/04 00:14:18;;;;;;;30.98;19.75;;;;;;;;;;20913179;28;20056;-63
2022/01/04 00:24:20;;;;;;;20.05;13.35;;;;;;;;;;20912582;28;20045;-65
2022/01/04 00:34:22;;;;;;;20.08;14.32;;;;;;;;;;20919229;28;20048;-66
2022/01/04 00:44:24;;;;;;;28.27;19.45;;;;;;;;;;20928835;28;20087;-60
2022/01/04 00:54:25;;;;;;;22.00;13.93;;;;;;;;;;20928315;28;20539;-60
2022/01/04 01:04:27;;;;;;;23.38;15.23;;;;;;;;;;20927541;28;20052;-59
2022/01/04 01:14:29;;;;;;;21.42;14.98;;;;;;;;;;20926619;28;20053;-57
2022/01/04 01:24:30;;;;;;;21.33;14.68;;;;;;;;;;20926482;28;20501;-58
2022/01/04 01:34:32;;;;;;;21.92;15.15;;;;;;;;;;20924063;28;20106;-58
2022/01/04 01:44:35;;;;;;;21.15;16.02;;;;;;;;;;20924555;28;20064;-58
2022/01/04 01:54:37;;;;;;;19.90;16.05;;;;;;;;;;20922886;28;20057;-63
2022/01/04 02:04:39;;;;;;;20.08;15.20;;;;;;;;;;20922883;28;20558;-63
2022/01/04 02:14:49;;;;;;;19.10;14.68;;;;;;;;;;20921743;28;20486;-63
2022/01/04 02:24:54;;;;;;;20.25;14.70;;;;;;;;;;20921848;28;20049;-65
2022/01/04 02:34:56;;;;;;;19.17;13.38;;;;;;;;;;20920449;28;20088;-64
2022/01/04 02:45:00;;;;;;;25.90;17.50;;;;;;;;;;20919265;28;20049;-63
2022/01/04 02:55:15;;;;;;;16.20;10.87;;;;;;;;;;20917692;28;20053;-60
2022/01/04 03:05:19;;;;;;;18.52;14.68;;;;;;;;;;20917603;28;20048;-63
2022/01/04 03:15:22;;;;;;;18.98;13.60;;;;;;;;;;20917725;28;20497;-63
2022/01/04 03:25:31;;;;;;;18.13;13.63;;;;;;;;;;20916280;28;20079;-63
2022/01/04 03:35:34;;;;;;;13.95;12.23;;;;;;;;;;20915955;28;20139;-63
2022/01/04 03:45:39;;;;;;;17.65;14.50;;;;;;;;;;20913362;28;20041;-64
2022/01/04 03:55:42;;;;;;;18.55;13.88;;;;;;;;;;20913737;28;20056;-65
2022/01/04 04:05:44;;;;;;;16.02;13.43;;;;;;;;;;20912990;28;20107;-62
2022/01/04 04:15:47;;;;;;;18.42;14.20;;;;;;;;;;20912881;28;20489;-63
2022/01/04 04:25:49;;;;;;;16.42;13.52;;;;;;;;;;20913088;28;20045;-64
2022/01/04 04:35:51;;;;;;;17.17;14.40;;;;;;;;;;20913091;28;20389;-64
2022/01/04 04:45:54;;;;;;;19.85;14.98;;;;;;;;;;20912067;28;20048;-65
2022/01/04 04:55:58;;;;;;;22.45;17.83;;;;;;;;;;20911611;28;20061;-65
2022/01/04 05:06:00;;;;;;;18.13;14.70;;;;;;;;;;20911325;28;20080;-61
2022/01/04 05:16:02;;;;;;;18.98;15.38;;;;;;;;;;20911133;28;20064;-59
2022/01/04 05:26:04;;;;;;;17.08;14.30;;;;;;;;;;20925524;28;20103;-60
2022/01/04 05:36:07;;;;;;;15.35;13.00;;;;;;;;;;20925041;28;20060;-65
2022/01/04 05:46:10;;;;;;;17.55;14.45;;;;;;;;;;20924446;28;20056;-62
2022/01/04 05:56:12;;;;;;;16.40;13.75;;;;;;;;;;20923208;28;20052;-66
2022/01/04 06:06:14;;;;;;;14.55;12.48;;;;;;;;;;20922725;28;20403;-66
2022/01/04 06:16:18;;;;;;;18.25;14.93;;;;;;;;;;20922597;28;20489;-63
2022/01/04 06:26:21;;;;;;;18.25;13.57;;;;;;;;;;20921178;28;20049;-63
2022/01/04 06:36:23;;;;;;;21.70;16.60;;;;;;;;;;20923016;28;20473;-62
2022/01/04 06:46:26;;;;;;;24.58;18.35;;;;;;;;;;20919065;28;20057;-62
2022/01/04 06:56:28;;;;;;;22.48;17.10;;;;;;;;;;20918029;28;20400;-66
2022/01/04 07:06:31;;;;;;;21.08;16.92;;;;;;;;;;20917466;28;20079;-64
2022/01/04 07:16:34;;;;;;;24.27;17.20;;;;;;;;;;20918474;28;20147;-65
2022/01/04 07:26:36;;;;;;;25.80;18.27;;;;;;;;;;20915600;28;20138;-65
2022/01/04 07:36:39;;;;;;;28.98;20.17;;;;;;;;;;20915565;28;20405;-70
2022/01/04 07:46:49;;;;;;;26.98;19.38;;;;;;;;;;20920838;28;20493;-60
2022/01/04 07:56:55;;;;;;;28.67;18.50;;;;;;;;;;20921454;28;20049;-67
2022/01/04 08:07:01;;;;;;;27.95;21.52;;;;;;;;;;20914355;28;20044;-71
2022/01/04 08:17:10;;;;;;;40.63;20.05;;;;;;;;;;20913008;28;20061;-69
2022/01/04 08:27:18;;;;;;;26.35;17.65;;;;;;;;;;20912104;28;20052;-70
2022/01/04 08:37:30;;;;;;;22.70;16.63;;;;;;;;;;20912619;28;20059;-69
2022/01/04 08:47:52;;;;;;;23.20;14.98;;;;;;;;;;20910258;28;20052;-67
2022/01/04 08:58:01;;;;;;;25.95;14.88;;;;;;;;;;20921906;28;20140;-66
2022/01/04 09:08:10;;;;;;;24.00;16.27;;;;;;;;;;20926787;28;20056;-69
2022/01/04 09:28:32;;;;;;;33.28;16.15;;;;;;;;;;20925445;28;20127;-61
2022/01/04 09:38:34;;;;;;;27.15;17.10;;;;;;;;;;20924521;28;20059;-68
2022/01/04 09:48:36;;;;;;;46.03;18.23;;;;;;;;;;20923778;28;20041;-65
2022/01/04 09:58:38;;;;;;;36.97;18.70;;;;;;;;;;20923089;28;20127;-68
2022/01/04 10:08:56;;;;;;;21.83;14.85;;;;;;;;;;20920146;28;20136;-69
2022/01/04 10:18:58;;;;;;;24.80;13.50;;;;;;;;;;20920210;28;20087;-66
2022/01/04 10:29:00;;;;;;;24.02;15.32;;;;;;;;;;20919511;28;20072;-60
2022/01/04 10:39:08;;;;;;;23.50;13.57;;;;;;;;;;20918398;28;20529;-62
2022/01/04 10:49:18;;;;;;;28.33;14.68;;;;;;;;;;20917263;28;20116;-61
2022/01/04 10:59:28;;;;;;;25.10;13.63;;;;;;;;;;20913255;28;20061;-60
2022/01/04 11:09:31;;;;;;;23.35;12.40;;;;;;;;;;20917023;28;20413;-57
2022/01/04 11:19:33;;;;;;;21.23;13.25;;;;;;;;;;20916368;28;20060;-58
2022/01/04 11:29:39;;;;;;;21.67;13.48;;;;;;;;;;20878402;28;20049;-51
2022/01/04 11:39:42;;;;;;;26.52;14.90;;;;;;;;;;20830748;28;20387;-56
2022/01/04 11:50:05;;;;;;;23.48;13.60;;;;;;;;;;20829951;28;20058;-53
2022/01/04 12:00:08;;;;;;;22.20;12.70;;;;;;;;;;20840999;28;20053;-53
2022/01/04 12:10:31;;;;;;;31.08;16.70;;;;;;;;;;20828510;28;20049;-59
2022/01/04 12:20:44;;;;;;;25.90;15.13;;;;;;;;;;20827683;28;20056;-70
2022/01/04 12:30:47;;;;;;;25.08;14.63;;;;;;;;;;20905797;28;20128;-54
2022/01/04 12:40:52;;;;;;;24.42;15.75;;;;;;;;;;20908546;28;20477;-55
2022/01/04 12:50:54;;;;;;;24.75;15.73;;;;;;;;;;20910710;28;20052;-56
2022/01/04 13:00:58;;;;;;;19.75;10.57;;;;;;;;;;20859316;28;20131;-59
2022/01/04 13:11:06;;;;;;;19.75;12.50;;;;;;;;;;20895181;28;20505;-61
2022/01/04 13:21:10;;;;;;;18.88;13.02;;;;;;;;;;20891771;28;20057;-61
2022/01/04 13:31:19;;;;;;;20.83;12.40;;;;;;;;;;20909198;28;20049;-60
2022/01/04 13:41:35;;;;;;;19.17;12.52;;;;;;;;;;20916292;28;20049;-60
2022/01/04 13:51:38;;;;;;;26.20;23.45;;;;;;;;;;20922700;28;20072;-62
2022/01/04 14:01:43;;;;;;;17.70;10.77;;;;;;;;;;20922368;28;20076;-60
2022/01/04 14:11:47;;;;;;;18.08;10.45;;;;;;;;;;20920968;28;20378;-60
2022/01/04 14:22:03;;;;;;;34.93;11.30;;;;;;;;;;20920996;28;20060;-60
2022/01/04 14:32:19;;;;;;;99.22;17.15;;;;;;;;;;20919617;28;20049;-61
2022/01/04 14:42:22;;;;;;;19.45;12.50;;;;;;;;;;20918856;28;20044;-60
2022/01/04 14:52:24;;;;;;;11.43;7.35;;;;;;;;;;20917342;28;20092;-59
2022/01/04 15:02:26;;;;;;;8.32;4.53;;;;;;;;;;20917885;28;20111;-60
2022/01/04 15:12:31;;;;;;;9.95;5.20;;;;;;;;;;20916764;28;20053;-60
2022/01/04 15:22:36;;;;;;;12.93;5.63;;;;;;;;;;20916616;28;20124;-59
2022/01/04 15:32:39;;;;;;;10.07;4.50;;;;;;;;;;20915535;28;20088;-61
2022/01/04 15:42:45;;;;;;;5.75;3.47;;;;;;;;;;20914352;28;20049;-61
2022/01/04 15:52:51;;;;;;;4.55;1.67;;;;;;;;;;20913695;28;20056;-60
2022/01/04 16:02:54;;;;;;;4.32;1.35;;;;;;;;;;20911496;28;20084;-61
2022/01/04 16:13:00;;;;;;;2.85;1.52;;;;;;;;;;20913297;28;20052;-61
2022/01/04 16:23:03;;;;;;;2.22;1.23;;;;;;;;;;20911602;28;20045;-61
2022/01/04 16:33:05;;;;;;;1.45;0.77;;;;;;;;;;20911846;28;20060;-60
2022/01/04 16:43:07;;;;;;;19.05;14.40;;;;;;;;;;20910915;28;20095;-60
2022/01/04 16:53:09;;;;;;;2.88;0.88;;;;;;;;;;20911000;28;20056;-62
2022/01/04 17:03:10;;;;;;;3.05;0.90;;;;;;;;;;20911055;28;20505;-62
2022/01/04 17:23:32;;;;;;;1.08;0.65;;;;;;;;;;20925972;28;20137;-60
2022/01/04 17:33:36;;;;;;;6.70;2.30;;;;;;;;;;20924900;28;20102;-54
2022/01/04 17:43:38;;;;;;;2.25;0.70;;;;;;;;;;20924192;28;20059;-62
2022/01/04 17:53:40;;;;;;;1.30;0.70;;;;;;;;;;20923788;28;20053;-60
2022/01/04 18:03:42;;;;;;;1.63;0.70;;;;;;;;;;20922612;28;20049;-60
2022/01/04 18:13:43;;;;;;;1.85;1.02;;;;;;;;;;20921679;28;20048;-61
2022/01/04 18:23:45;;;;;;;1.98;0.88;;;;;;;;;;20920284;28;20060;-61
2022/01/04 18:33:47;;;;;;;0.80;0.57;;;;;;;;;;20919494;28;20054;-61
2022/01/04 18:43:48;;;;;;;2.15;1.50;;;;;;;;;;20919313;28;20160;-61
2022/01/04 18:53:50;;;;;;;1.30;0.88;;;;;;;;;;20917765;28;20093;-60
2022/01/04 19:03:52;;;;;;;1.60;0.80;;;;;;;;;;20917404;28;20072;-62
2022/01/04 19:13:54;;;;;;;2.47;1.17;;;;;;;;;;20916615;28;20057;-57
2022/01/04 19:23:56;;;;;;;1.70;0.98;;;;;;;;;;20875250;28;20049;-58
2022/01/04 19:44:11;;;;;;;3.50;1.48;;;;;;;;;;20872465;28;20045;-58
2022/01/04 19:54:14;;;;;;;4.93;0.93;;;;;;;;;;20872484;28;20053;-69
2022/01/04 20:04:18;;;;;;;1.52;0.88;;;;;;;;;;20871874;28;20094;-66
2022/01/04 20:14:20;;;;;;;1.65;0.73;;;;;;;;;;20867074;28;20474;-59
2022/01/04 20:24:22;;;;;;;1.10;0.60;;;;;;;;;;20868840;28;20119;-53
2022/01/04 20:34:24;;;;;;;1.58;0.98;;;;;;;;;;20866443;28;20140;-54
2022/01/04 20:44:26;;;;;;;2.28;0.98;;;;;;;;;;20856646;28;20050;-56
2022/01/04 20:54:28;;;;;;;1.10;0.68;;;;;;;;;;20841495;28;20053;-56
2022/01/04 21:04:29;;;;;;;1.55;0.70;;;;;;;;;;20891105;28;20129;-57
2022/01/04 21:14:31;;;;;;;1.35;0.65;;;;;;;;;;20842971;28;20455;-55
2022/01/04 21:24:33;;;;;;;0.85;0.52;;;;;;;;;;20841609;28;20045;-58
2022/01/04 21:34:35;;;;;;;1.35;0.70;;;;;;;;;;20841985;28;20232;-53
2022/01/04 21:44:36;;;;;;;1.38;0.65;;;;;;;;;;20840970;28;20081;-55
2022/01/04 21:54:38;;;;;;;1.15;0.70;;;;;;;;;;20841731;28;20052;-56
2022/01/04 22:04:40;;;;;;;0.85;0.60;;;;;;;;;;20840545;28;20543;-60
2022/01/04 22:14:42;;;;;;;1.42;0.85;;;;;;;;;;20839628;28;20132;-54
2022/01/04 22:24:44;;;;;;;1.08;0.60;;;;;;;;;;20839569;28;20056;-54
2022/01/04 22:34:46;;;;;;;2.38;1.23;;;;;;;;;;20837997;28;20061;-53
2022/01/04 22:44:48;;;;;;;2.50;1.02;;;;;;;;;;20839080;28;20045;-57
2022/01/04 22:54:50;;;;;;;1.58;0.80;;;;;;;;;;20843479;28;20085;-56
2022/01/04 23:04:51;;;;;;;1.23;0.75;;;;;;;;;;20841705;28;20060;-62
2022/01/04 23:14:53;;;;;;;0.73;0.50;;;;;;;;;;20835110;28;20045;-59
2022/01/04 23:24:55;;;;;;;0.50;0.40;;;;;;;;;;20834686;28;20052;-60
2022/01/04 23:34:57;;;;;;;4.05;1.63;;;;;;;;;;20834214;28;20046;-60
2022/01/04 23:44:58;;;;;;;1.38;0.60;;;;;;;;;;20833543;28;20604;-58
2022/01/04 23:55:00;;;;;;;1.42;1.02;;;;;;;;;;20832037;28;20053;-60
